Time;durP1;ratioP1;P1;durP2;ratioP2;P2;SDS_P1;SDS_P2;PMS_P1;PMS_P2;Temp;Humidity;BMP_temperature;BMP_pressure;BME280_temperature;BME280_humidity;BME280_pressure;Samples;Min_cycle;Max_cycle;Signal;HPM_P1;HPM_P2
2022/10/21 00:00:39;;;;;;;11.18;6.97;;;;;;;0.88;89.48;99038.95;1755838;81;21407;-57
2022/10/21 00:03:06;;;;;;;11.85;7.47;;;;;;;0.92;89.65;99035.70;1755692;81;20983;-57
2022/10/21 00:05:32;;;;;;;12.53;7.60;;;;;;;0.92;89.56;99033.06;1755655;81;20924;-56
2022/10/21 00:08:00;;;;;;;12.85;7.30;;;;;;;0.89;89.25;99025.59;1755674;81;21423;-58
2022/10/21 00:10:29;;;;;;;13.60;7.28;;;;;;;0.85;89.20;99025.66;1755669;81;20940;-58
2022/10/21 00:12:55;;;;;;;12.50;7.58;;;;;;;0.83;89.17;99021.10;1755614;81;20988;-58
2022/10/21 00:15:23;;;;;;;12.47;8.08;;;;;;;0.79;89.03;99019.89;1755598;81;20943;-57
2022/10/21 00:17:52;;;;;;;13.60;8.45;;;;;;;0.77;88.99;99023.75;1755708;81;20884;-57
2022/10/21 00:20:18;;;;;;;16.23;8.38;;;;;;;0.74;88.77;99014.91;1755811;81;21756;-58
2022/10/21 00:22:45;;;;;;;20.95;10.68;;;;;;;0.69;88.67;99008.93;1755551;81;20900;-57
2022/10/21 00:25:12;;;;;;;18.10;10.03;;;;;;;0.66;88.65;99011.46;1742120;82;20849;-58
2022/10/21 00:27:40;;;;;;;18.42;9.90;;;;;;;0.61;88.71;99008.62;1750013;82;20893;-58
2022/10/21 00:30:09;;;;;;;16.80;9.48;;;;;;;0.60;88.93;99007.51;1755731;81;20999;-58
2022/10/21 00:32:37;;;;;;;16.00;9.55;;;;;;;0.60;88.90;99007.51;1755611;81;21111;-58
2022/10/21 00:35:05;;;;;;;14.68;9.18;;;;;;;0.60;88.90;99010.96;1755851;81;21600;-57
2022/10/21 00:37:32;;;;;;;12.05;8.00;;;;;;;0.61;88.85;99007.30;1755785;81;21424;-58
2022/10/21 00:39:59;;;;;;;10.70;7.22;;;;;;;0.59;88.67;98999.28;1755699;81;20907;-58
2022/10/21 00:42:31;;;;;;;11.85;6.95;;;;;;;0.55;88.78;98992.80;1755937;81;21509;-57
2022/10/21 00:45:09;;;;;;;10.48;7.03;;;;;;;0.55;88.96;98994.11;1754946;81;21128;-58
2022/10/21 00:47:55;;;;;;;11.25;6.42;;;;;;;0.51;89.07;98991.59;1755594;81;21409;-57
2022/10/21 00:50:39;;;;;;;9.13;6.05;;;;;;;0.51;89.25;98996.36;1755096;81;20892;-57
2022/10/21 00:53:08;;;;;;;11.57;7.17;;;;;;;0.52;89.28;98989.23;1754218;81;20979;-57
2022/10/21 00:55:38;;;;;;;11.25;7.00;;;;;;;0.52;89.45;98983.97;1752922;82;20947;-57
2022/10/21 00:58:05;;;;;;;9.53;6.42;;;;;;;0.51;89.41;98984.50;1753088;81;21514;-57
2022/10/21 01:00:32;;;;;;;10.68;6.78;;;;;;;0.50;89.43;98979.41;1752956;81;20845;-57
2022/10/21 01:02:59;;;;;;;9.13;6.03;;;;;;;0.48;89.48;98975.67;1752900;82;20988;-57
2022/10/21 01:05:25;;;;;;;8.48;5.42;;;;;;;0.47;89.50;98976.66;1752995;82;20943;-57
2022/10/21 01:07:54;;;;;;;10.53;5.62;;;;;;;0.49;89.47;98977.80;1753012;81;20892;-58
2022/10/21 01:10:21;;;;;;;10.20;6.00;;;;;;;0.52;89.57;98979.52;1752905;82;21245;-58
2022/10/21 01:13:13;;;;;;;10.75;5.78;;;;;;;0.56;89.70;98985.20;1752914;81;20889;-58
2022/10/21 01:16:02;;;;;;;11.10;5.80;;;;;;;0.56;89.66;98977.30;1752895;81;20853;-58
2022/10/21 01:19:08;;;;;;;10.88;5.70;;;;;;;0.56;89.69;98979.94;1752900;82;20896;-58
2022/10/21 01:22:13;;;;;;;7.25;5.20;;;;;;;0.54;89.41;98980.65;1753170;82;20944;-58
2022/10/21 01:25:03;;;;;;;8.25;5.35;;;;;;;0.49;89.51;98977.80;1752925;81;21237;-57
2022/10/21 01:28:10;;;;;;;8.65;5.55;;;;;;;0.47;89.67;98967.97;1753042;81;20880;-57
2022/10/21 01:30:40;;;;;;;9.93;5.22;;;;;;;0.48;89.59;98973.53;1753137;81;21423;-57
2022/10/21 01:33:21;;;;;;;9.38;5.65;;;;;;;0.42;89.56;98963.80;1752986;82;20940;-57
2022/10/21 01:36:22;;;;;;;6.90;4.22;;;;;;;0.41;89.65;98956.90;1753075;81;21463;-57
2022/10/21 01:39:17;;;;;;;8.10;4.62;;;;;;;0.39;89.61;98951.84;1752895;82;21178;-58
2022/10/21 01:42:14;;;;;;;5.87;4.17;;;;;;;0.39;89.58;98947.07;1753404;81;21557;-57
2022/10/21 01:45:02;;;;;;;10.20;4.65;;;;;;;0.39;89.58;98947.07;1752919;82;21168;-57
2022/10/21 01:47:32;;;;;;;9.25;4.92;;;;;;;0.38;89.74;98950.70;1753179;82;21439;-57
2022/10/21 01:50:09;;;;;;;6.25;4.35;;;;;;;0.37;89.75;98944.65;1753127;82;20848;-57
2022/10/21 01:52:38;;;;;;;4.87;3.55;;;;;;;0.36;89.56;98946.15;1753061;81;21691;-57
2022/10/21 01:55:09;;;;;;;6.92;4.50;;;;;;;0.32;89.55;98939.16;1752844;81;21026;-57
2022/10/21 01:57:40;;;;;;;6.80;4.40;;;;;;;0.31;89.64;98940.66;1752885;82;20959;-57
2022/10/21 02:00:09;;;;;;;8.85;4.90;;;;;;;0.29;89.67;98934.79;1723667;82;20987;-57
2022/10/21 02:02:43;;;;;;;12.68;4.78;;;;;;;0.28;89.63;98931.87;1724722;82;21558;-58
2022/10/21 02:05:21;;;;;;;8.85;4.08;;;;;;;0.26;89.57;98935.22;1725002;82;20992;-57
2022/10/21 02:07:48;;;;;;;5.70;3.83;;;;;;;0.23;89.63;98936.92;1753079;81;20937;-57
2022/10/21 02:10:17;;;;;;;4.67;3.58;;;;;;;0.22;89.74;98940.06;1752858;81;20995;-57
2022/10/21 02:12:45;;;;;;;8.55;3.98;;;;;;;0.21;89.83;98933.69;1752864;82;20865;-57
2022/10/21 02:15:12;;;;;;;7.55;3.47;;;;;;;0.20;90.06;98939.45;1752966;82;20864;-57
2022/10/21 02:17:43;;;;;;;7.87;3.87;;;;;;;0.22;90.16;98936.61;1723928;82;21120;-57
2022/10/21 02:20:10;;;;;;;5.42;3.83;;;;;;;0.22;90.31;98932.16;1752838;82;21423;-57
2022/10/21 02:22:39;;;;;;;5.20;3.60;;;;;;;0.22;90.42;98930.02;1752886;82;21003;-58
2022/10/21 02:25:10;;;;;;;7.65;3.00;;;;;;;0.25;90.56;98924.36;1752837;82;20979;-56
2022/10/21 02:27:37;;;;;;;4.92;3.17;;;;;;;0.27;90.57;98933.69;1753467;81;21471;-57
2022/10/21 02:30:05;;;;;;;4.75;3.42;;;;;;;0.30;90.71;98933.29;1753326;81;21423;-57
2022/10/21 02:33:12;;;;;;;7.17;3.92;;;;;;;0.31;90.44;98930.12;1753067;81;20932;-57
2022/10/21 02:35:44;;;;;;;11.77;4.57;;;;;;;0.29;90.03;98930.84;1753336;81;20979;-59
2022/10/21 02:38:34;;;;;;;6.33;4.20;;;;;;;0.23;89.91;98935.61;1752883;81;21124;-56
2022/10/21 02:41:03;;;;;;;6.15;4.00;;;;;;;0.21;89.79;98923.15;1753204;81;20908;-58
2022/10/21 02:43:39;;;;;;;4.83;3.75;;;;;;;0.13;89.76;98920.69;1753035;81;20900;-58
2022/10/21 02:46:08;;;;;;;7.58;4.05;;;;;;;0.11;89.86;98921.41;1752985;81;21071;-59
2022/10/21 02:48:36;;;;;;;9.93;3.83;;;;;;;0.10;89.98;98920.59;1753076;81;20932;-58
2022/10/21 02:51:04;;;;;;;6.00;4.12;;;;;;;0.13;90.07;98929.41;1753003;81;20939;-58
2022/10/21 02:53:31;;;;;;;8.88;4.87;;;;;;;0.12;90.06;98921.19;1723521;82;21431;-58
2022/10/21 02:55:57;;;;;;;6.60;3.92;;;;;;;0.11;89.66;98925.36;1752579;82;21208;-58
2022/10/21 02:58:24;;;;;;;7.90;3.87;;;;;;;0.04;89.61;98909.55;1752490;82;21526;-58
2022/10/21 03:00:50;;;;;;;7.90;4.42;;;;;;;-0.02;89.70;98911.65;1752468;82;20915;-58
2022/10/21 03:03:17;;;;;;;7.42;4.03;;;;;;;-0.07;90.04;98903.03;1752531;82;21474;-58
2022/10/21 03:05:43;;;;;;;7.67;4.58;;;;;;;-0.06;90.22;98899.41;1752498;82;20920;-58
2022/10/21 03:08:11;;;;;;;7.33;4.70;;;;;;;-0.04;90.31;98911.04;1752542;82;21086;-58
2022/10/21 03:10:39;;;;;;;6.33;4.90;;;;;;;-0.03;90.34;98906.91;1752417;82;20932;-58
2022/10/21 03:13:06;;;;;;;6.53;4.50;;;;;;;-0.03;90.55;98901.64;1752555;82;20916;-59
2022/10/21 03:15:33;;;;;;;7.70;4.30;;;;;;;0.02;90.70;98900.22;1752561;82;20928;-59
2022/10/21 03:18:00;;;;;;;5.92;3.77;;;;;;;0.03;90.84;98900.01;1752586;82;20892;-58
2022/10/21 03:20:26;;;;;;;7.80;3.98;;;;;;;0.04;91.04;98891.11;1752469;82;21117;-58
2022/10/21 03:22:54;;;;;;;5.97;3.72;;;;;;;0.09;91.32;98895.77;1752486;82;20968;-58
2022/10/21 03:25:21;;;;;;;7.28;3.47;;;;;;;0.12;91.39;98895.37;1752524;82;20896;-59
2022/10/21 03:27:51;;;;;;;4.83;3.50;;;;;;;0.16;91.46;98896.59;1752620;81;21513;-58
2022/10/21 03:30:18;;;;;;;5.17;3.77;;;;;;;0.20;91.52;98903.06;1752589;82;21501;-58
2022/10/21 03:32:45;;;;;;;5.20;3.60;;;;;;;0.21;91.31;98904.70;1752443;82;21288;-58
2022/10/21 03:35:11;;;;;;;7.80;3.87;;;;;;;0.14;90.91;98894.66;1752382;82;21423;-56
2022/10/21 03:37:38;;;;;;;6.65;4.53;;;;;;;0.08;90.73;98885.73;1752414;81;20971;-56
2022/10/21 03:40:06;;;;;;;18.42;7.28;;;;;;;0.05;90.80;98884.81;1752499;81;21454;-56
2022/10/21 03:42:34;;;;;;;19.62;7.53;;;;;;;0.08;90.84;98887.55;1752531;81;21034;-56
2022/10/21 03:45:01;;;;;;;16.25;6.97;;;;;;;0.07;90.68;98888.08;1752437;81;21116;-57
2022/10/21 03:47:28;;;;;;;18.30;7.08;;;;;;;0.05;90.56;98889.30;1752324;82;20892;-57
2022/10/21 03:49:54;;;;;;;16.65;7.58;;;;;;;0.03;90.56;98883.39;1752516;82;21014;-57
2022/10/21 03:52:21;;;;;;;13.15;6.97;;;;;;;-0.02;90.65;98887.44;1752403;81;20896;-57
2022/10/21 03:54:49;;;;;;;14.05;7.12;;;;;;;-0.01;90.70;98897.48;1752376;81;20920;-57
2022/10/21 03:57:16;;;;;;;13.13;6.62;;;;;;;-0.06;90.45;98894.13;1752519;82;21065;-58
2022/10/21 03:59:42;;;;;;;12.65;5.90;;;;;;;-0.09;90.48;98898.97;1752437;81;20919;-57
2022/10/21 04:02:09;;;;;;;11.65;5.70;;;;;;;-0.10;90.56;98906.09;1752485;82;20931;-57
2022/10/21 04:04:36;;;;;;;12.45;5.67;;;;;;;-0.10;90.55;98906.59;1752605;81;21498;-58
2022/10/21 04:07:04;;;;;;;11.40;6.20;;;;;;;-0.13;90.54;98907.80;1752564;82;20947;-58
2022/10/21 04:09:31;;;;;;;14.75;6.22;;;;;;;-0.14;90.59;98900.89;1752421;81;21244;-57
2022/10/21 04:11:59;;;;;;;14.13;5.90;;;;;;;-0.15;90.66;98908.50;1752347;81;20864;-57
2022/10/21 04:14:27;;;;;;;11.12;6.75;;;;;;;-0.14;90.75;98910.11;1752514;82;20963;-57
2022/10/21 04:16:53;;;;;;;12.70;7.75;;;;;;;-0.11;90.58;98909.72;1752497;82;20988;-57
2022/10/21 04:19:21;;;;;;;203.45;118.08;;;;;;;-0.14;90.40;98909.30;1752432;82;20852;-57
2022/10/21 04:21:49;;;;;;;185.55;120.75;;;;;;;-0.18;90.51;98906.27;1752505;81;21122;-57
2022/10/21 04:24:16;;;;;;;261.70;176.65;;;;;;;-0.20;90.70;98905.66;1752433;81;21541;-57
2022/10/21 04:26:43;;;;;;;88.42;65.40;;;;;;;-0.18;90.77;98901.00;1752403;81;20888;-58
2022/10/21 04:29:10;;;;;;;49.10;39.18;;;;;;;-0.20;90.40;98895.13;1752540;81;21419;-57
2022/10/21 04:31:37;;;;;;;33.85;25.65;;;;;;;-0.27;90.34;98894.80;1752422;82;20944;-58
2022/10/21 04:34:03;;;;;;;37.48;27.90;;;;;;;-0.30;90.48;98890.73;1752552;82;21674;-58
2022/10/21 04:36:31;;;;;;;41.80;30.75;;;;;;;-0.31;90.51;98894.40;1752301;82;20976;-58
2022/10/21 04:38:57;;;;;;;41.75;33.23;;;;;;;-0.29;90.53;98887.11;1752441;82;20928;-58
2022/10/21 04:41:24;;;;;;;53.92;39.27;;;;;;;-0.28;90.67;98902.38;1752551;82;21869;-58
2022/10/21 04:43:51;;;;;;;43.63;33.78;;;;;;;-0.29;90.67;98896.82;1752451;82;21308;-58
2022/10/21 04:46:19;;;;;;;39.40;31.25;;;;;;;-0.27;90.76;98902.70;1752650;82;21458;-58
2022/10/21 04:48:46;;;;;;;29.45;18.95;;;;;;;-0.30;90.67;98903.90;1752430;81;21446;-58
2022/10/21 04:51:13;;;;;;;29.95;13.30;;;;;;;-0.33;90.57;98910.09;1752448;81;20935;-58
2022/10/21 04:53:41;;;;;;;24.57;10.85;;;;;;;-0.38;90.69;98912.50;1752964;80;20959;-58
2022/10/21 04:56:08;;;;;;;33.35;12.63;;;;;;;-0.40;90.83;98904.77;1742020;82;20940;-58
2022/10/21 04:58:35;;;;;;;24.20;15.30;;;;;;;-0.38;91.00;98908.05;1749998;82;21073;-58
2022/10/21 05:01:02;;;;;;;28.32;18.40;;;;;;;-0.34;91.07;98902.69;1755438;81;20892;-58
2022/10/21 05:03:29;;;;;;;46.20;32.05;;;;;;;-0.31;91.06;98905.42;1741926;82;20932;-59
2022/10/21 05:05:56;;;;;;;48.70;30.17;;;;;;;-0.30;91.07;98896.50;1750011;82;20987;-58
2022/10/21 05:08:23;;;;;;;37.33;23.57;;;;;;;-0.27;91.15;98904.83;1755635;81;20907;-59
2022/10/21 05:10:59;;;;;;;35.25;22.95;;;;;;;-0.22;91.31;98902.41;1741983;82;21230;-58
2022/10/21 05:13:29;;;;;;;32.78;17.48;;;;;;;-0.15;91.34;98907.69;1750018;82;20923;-59
2022/10/21 05:16:00;;;;;;;28.98;18.05;;;;;;;-0.08;91.43;98915.09;1736946;81;20940;-58
2022/10/21 05:18:28;;;;;;;25.90;15.20;;;;;;;-0.04;91.50;98909.73;1762158;81;20928;-59
2022/10/21 05:20:56;;;;;;;28.62;15.25;;;;;;;-0.03;91.33;98906.09;1736638;81;21494;-58
2022/10/21 05:23:24;;;;;;;23.95;14.45;;;;;;;-0.03;91.18;98905.59;1732877;81;21323;-58
2022/10/21 05:25:51;;;;;;;28.00;13.22;;;;;;;-0.01;91.26;98914.10;1744483;81;21095;-60
2022/10/21 05:28:19;;;;;;;25.52;12.00;;;;;;;0.06;91.43;98915.42;1752693;81;21007;-60
2022/10/21 05:30:45;;;;;;;30.15;13.55;;;;;;;0.15;91.50;98908.12;1754993;81;21063;-58
2022/10/21 05:33:12;;;;;;;36.33;16.85;;;;;;;0.22;91.41;98903.67;1732253;82;21118;-60
2022/10/21 05:35:40;;;;;;;30.32;14.73;;;;;;;0.26;91.23;98902.27;1723235;82;21681;-60
2022/10/21 05:38:06;;;;;;;34.63;15.25;;;;;;;0.30;91.30;98903.48;1689095;84;21006;-59
2022/10/21 05:40:33;;;;;;;24.40;14.40;;;;;;;0.39;91.56;98898.31;1687765;84;20972;-59
2022/10/21 05:43:00;;;;;;;32.33;12.65;;;;;;;0.51;91.79;98909.87;1685668;84;21165;-59
2022/10/21 05:45:27;;;;;;;18.00;10.75;;;;;;;0.64;92.04;98904.07;1688617;84;21083;-61
2022/10/21 05:47:53;;;;;;;25.92;16.20;;;;;;;0.77;92.26;98909.84;1728209;82;21756;-60
2022/10/21 05:50:23;;;;;;;22.70;16.17;;;;;;;0.90;92.37;98903.21;1738564;81;21520;-59
2022/10/21 05:52:50;;;;;;;23.70;15.68;;;;;;;1.00;92.36;98910.20;1743859;81;21481;-57
2022/10/21 05:55:17;;;;;;;34.40;18.15;;;;;;;1.09;92.38;98905.00;1739126;81;21153;-60
2022/10/21 05:57:43;;;;;;;27.32;17.90;;;;;;;1.17;92.42;98910.06;1731716;81;21548;-60
2022/10/21 06:00:12;;;;;;;35.03;18.60;;;;;;;1.28;92.36;98909.41;1711155;83;21120;-59
2022/10/21 06:02:39;;;;;;;28.27;17.20;;;;;;;1.42;92.31;98910.66;1676678;84;21613;-61
2022/10/21 06:05:06;;;;;;;25.05;16.45;;;;;;;1.55;92.36;98915.91;1747696;81;21066;-60
2022/10/21 06:07:34;;;;;;;17.95;13.40;;;;;;;1.71;92.38;98916.73;1743913;80;21086;-59
2022/10/21 06:10:01;;;;;;;16.95;9.53;;;;;;;1.89;92.23;98915.00;1747769;80;20972;-60
2022/10/21 06:12:29;;;;;;;14.40;8.08;;;;;;;2.05;91.97;98915.00;1712068;82;21136;-60
2022/10/21 06:14:56;;;;;;;12.10;7.67;;;;;;;2.22;91.78;98912.65;1748480;81;21117;-59
2022/10/21 06:17:23;;;;;;;12.18;8.33;;;;;;;2.37;91.42;98912.66;1712548;82;21086;-63
2022/10/21 06:19:50;;;;;;;16.60;10.15;;;;;;;2.50;91.11;98906.42;1684605;84;21044;-59
2022/10/21 06:22:18;;;;;;;17.87;10.55;;;;;;;2.61;90.77;98906.56;1736420;80;21662;-61
2022/10/21 06:24:45;;;;;;;16.97;11.35;;;;;;;2.73;90.34;98898.18;1717685;83;21138;-61
2022/10/21 06:27:12;;;;;;;18.07;12.53;;;;;;;2.82;90.09;98894.76;1680954;83;21601;-61
2022/10/21 06:29:40;;;;;;;18.82;12.23;;;;;;;2.95;89.92;98896.44;1727742;83;21635;-62
2022/10/21 06:32:07;;;;;;;17.65;11.50;;;;;;;3.08;89.68;98899.78;1719813;83;21051;-62
2022/10/21 06:34:35;;;;;;;21.10;13.40;;;;;;;3.22;89.44;98896.47;1711765;83;21553;-60
2022/10/21 06:37:02;;;;;;;15.30;10.40;;;;;;;3.36;89.14;98888.66;1682461;83;21052;-58
2022/10/21 06:39:29;;;;;;;12.33;9.28;;;;;;;3.50;88.84;98878.20;1748888;81;20971;-61
2022/10/21 06:41:56;;;;;;;15.63;8.78;;;;;;;3.63;88.45;98868.74;1744090;81;21027;-64
2022/10/21 06:44:42;;;;;;;11.57;6.28;;;;;;;3.77;88.15;98865.42;1733052;81;21615;-61
2022/10/21 06:47:08;;;;;;;15.30;7.28;;;;;;;3.90;87.73;98862.05;1739962;80;21129;-60
2022/10/21 06:49:45;;;;;;;13.78;7.55;;;;;;;4.04;87.39;98869.29;1749026;81;20936;-59
2022/10/21 06:52:16;;;;;;;22.82;12.45;;;;;;;4.18;86.96;98870.70;1732101;82;21078;-60
2022/10/21 06:57:03;;;;;;;14.35;6.37;;;;;;;4.49;85.91;98874.91;1872204;76;23315;-61
2022/10/21 07:05:08;;;;;;;14.38;8.38;;;;;;;4.77;84.25;98877.67;1878856;76;22412;-58
2022/10/21 07:07:36;;;;;;;10.65;6.75;;;;;;;4.75;83.59;98874.45;1840885;77;20967;-61
2022/10/21 07:10:04;;;;;;;12.90;7.15;;;;;;;4.81;83.50;98868.20;1843100;77;21249;-61
2022/10/21 07:12:31;;;;;;;7.58;5.47;;;;;;;4.90;83.28;98866.02;1826784;77;20981;-64
2022/10/21 07:15:01;;;;;;;19.87;9.78;;;;;;;5.02;82.95;98868.93;1829515;77;20872;-61
2022/10/21 07:17:33;;;;;;;9.13;5.12;;;;;;;5.15;82.37;98868.70;1827007;77;21051;-62
2022/10/21 07:19:57;;;;;;;5.72;4.20;;;;;;;5.23;81.81;98863.00;1846139;77;21028;-62
2022/10/21 07:22:24;;;;;;;14.28;8.23;;;;;;;5.30;81.05;98853.59;1845094;77;21108;-61
2022/10/21 07:25:12;;;;;;;8.65;5.92;;;;;;;5.35;80.41;98846.52;1848412;77;20989;-63
2022/10/21 07:27:40;;;;;;;10.78;5.83;;;;;;;5.41;80.57;98842.94;1842316;75;21465;-59
2022/10/21 07:30:09;;;;;;;12.40;5.03;;;;;;;5.47;79.99;98835.33;1856216;77;20887;-60
2022/10/21 07:32:36;;;;;;;6.45;3.77;;;;;;;5.53;80.02;98833.04;1840063;77;21033;-59
2022/10/21 07:35:03;;;;;;;7.15;4.50;;;;;;;5.65;79.93;98832.20;1839382;77;21064;-60
2022/10/21 07:37:30;;;;;;;9.80;3.80;;;;;;;5.75;79.61;98836.36;1828790;77;20959;-58
2022/10/21 07:39:56;;;;;;;12.20;6.92;;;;;;;5.86;79.31;98848.84;1842165;77;20997;-60
2022/10/21 07:42:23;;;;;;;11.48;6.92;;;;;;;5.95;78.82;98840.75;1835282;77;21007;-63
2022/10/21 07:44:52;;;;;;;8.68;4.92;;;;;;;6.05;78.42;98840.39;1839378;77;21093;-60
2022/10/21 07:47:19;;;;;;;7.90;4.85;;;;;;;6.17;77.62;98841.67;1838353;77;21212;-61
2022/10/21 07:52:33;;;;;;;11.30;6.30;;;;;;;6.38;76.35;98840.95;1860306;75;22414;-60
2022/10/21 07:55:02;;;;;;;3.77;2.70;;;;;;;6.39;76.46;98835.89;1860494;77;20911;-60
2022/10/21 07:57:31;;;;;;;3.33;2.55;;;;;;;6.52;75.95;98830.25;1859559;77;21240;-61
2022/10/21 07:59:57;;;;;;;11.38;8.33;;;;;;;6.60;75.15;98831.67;1847738;77;21002;-61
2022/10/21 08:02:25;;;;;;;31.20;13.72;;;;;;;6.66;74.02;98828.86;1830034;77;21533;-61
2022/10/21 08:04:54;;;;;;;6.92;4.10;;;;;;;6.69;73.96;98819.03;1835120;77;20993;-61
2022/10/21 08:07:20;;;;;;;6.25;4.87;;;;;;;6.77;73.99;98818.63;1834721;77;20963;-61
2022/10/21 08:09:49;;;;;;;7.90;4.15;;;;;;;6.88;73.44;98813.71;1838200;77;21481;-63
2022/10/21 08:12:15;;;;;;;5.15;3.02;;;;;;;6.98;72.81;98802.38;1841191;77;20963;-59
2022/10/21 08:14:42;;;;;;;3.90;2.50;;;;;;;7.05;71.75;98795.53;1827887;77;20979;-61
2022/10/21 08:17:15;;;;;;;6.20;3.45;;;;;;;7.10;71.31;98795.08;1827837;77;20872;-61
2022/10/21 08:19:43;;;;;;;4.30;2.52;;;;;;;7.16;70.27;98791.96;1834798;77;21049;-61
2022/10/21 08:22:09;;;;;;;6.00;2.40;;;;;;;7.23;70.46;98791.25;1822286;77;21116;-61
2022/10/21 08:24:37;;;;;;;3.55;2.30;;;;;;;7.31;69.98;98784.13;1836127;77;20993;-65
2022/10/21 08:27:04;;;;;;;3.67;2.17;;;;;;;7.38;69.55;98771.41;1829034;77;20964;-63
2022/10/21 08:29:33;;;;;;;5.12;2.87;;;;;;;7.46;69.53;98770.97;1839662;77;21031;-62
2022/10/21 08:31:59;;;;;;;3.62;2.00;;;;;;;7.55;69.18;98771.61;1830431;77;21114;-65
2022/10/21 08:34:26;;;;;;;3.47;2.33;;;;;;;7.64;67.88;98777.28;1832218;77;21092;-61
2022/10/21 08:36:53;;;;;;;7.67;4.33;;;;;;;7.71;67.49;98771.73;1837821;77;20982;-62
2022/10/21 08:39:20;;;;;;;19.65;11.12;;;;;;;7.77;67.14;98775.55;1832992;77;20996;-64
2022/10/21 08:41:56;;;;;;;24.27;15.45;;;;;;;7.86;66.70;98774.55;1826829;77;20998;-68
2022/10/21 08:44:57;;;;;;;29.00;18.92;;;;;;;7.94;66.38;98778.88;1845310;77;26018;-62
2022/10/21 08:47:43;;;;;;;13.43;9.68;;;;;;;8.03;66.15;98772.02;1830707;77;21303;-61
2022/10/21 08:50:14;;;;;;;6.15;4.60;;;;;;;8.17;66.09;98761.74;1859501;77;20931;-65
2022/10/21 08:53:02;;;;;;;4.80;3.10;;;;;;;8.28;65.11;98759.97;1835231;77;25193;-60
2022/10/21 08:55:39;;;;;;;6.30;2.72;;;;;;;8.33;64.99;98767.48;1782038;78;21037;-61
2022/10/21 08:58:13;;;;;;;7.70;3.10;;;;;;;8.42;64.73;98757.13;1821389;77;21681;-62
2022/10/21 09:00:54;;;;;;;5.78;2.85;;;;;;;8.46;64.03;98758.20;1811535;77;21266;-63
2022/10/21 09:04:08;;;;;;;4.92;3.20;;;;;;;8.41;63.83;98766.20;1823867;77;21022;-64
2022/10/21 09:06:53;;;;;;;8.83;3.37;;;;;;;8.32;64.10;98763.72;1822936;77;20967;-61
2022/10/21 09:09:38;;;;;;;4.22;2.90;;;;;;;8.27;65.04;98756.48;1774579;79;21030;-61
2022/10/21 09:12:18;;;;;;;5.53;2.85;;;;;;;8.32;65.73;98765.05;1754043;80;21106;-62
2022/10/21 09:15:17;;;;;;;7.70;2.90;;;;;;;8.41;65.67;98756.86;1767448;79;21130;-62
2022/10/21 09:18:32;;;;;;;4.22;3.20;;;;;;;8.49;65.81;98757.70;1761976;80;21583;-61
2022/10/21 09:21:26;;;;;;;3.70;2.35;;;;;;;8.63;65.90;98758.84;1749259;80;20988;-61
2022/10/21 09:24:17;;;;;;;2.67;1.80;;;;;;;8.73;64.96;98757.05;1762328;79;21404;-62
2022/10/21 09:26:50;;;;;;;3.42;2.17;;;;;;;8.79;63.98;98755.19;1756819;80;21114;-63
2022/10/21 09:29:39;;;;;;;3.92;2.27;;;;;;;8.86;63.52;98738.39;1760070;81;21156;-61
2022/10/21 09:32:26;;;;;;;3.55;2.00;;;;;;;8.90;62.52;98738.16;1805336;78;20928;-61
2022/10/21 09:35:03;;;;;;;3.40;1.60;;;;;;;8.93;62.45;98748.30;1830178;77;21639;-63
2022/10/21 09:37:48;;;;;;;2.55;1.60;;;;;;;9.03;61.12;98752.36;1816278;77;21024;-62
2022/10/21 09:40:27;;;;;;;7.25;1.70;;;;;;;9.07;60.15;98746.76;1815292;77;21454;-60
2022/10/21 09:42:58;;;;;;;3.55;1.50;;;;;;;9.10;59.60;98756.94;1817921;77;21491;-59
2022/10/21 09:45:37;;;;;;;1.90;1.50;;;;;;;9.15;59.41;98747.59;1812370;77;20922;-59
2022/10/21 09:48:25;;;;;;;8.33;2.15;;;;;;;9.25;59.39;98737.47;1825161;77;20959;-59
2022/10/21 09:51:06;;;;;;;4.62;1.85;;;;;;;9.35;59.64;98742.30;1804734;77;21038;-59
2022/10/21 09:53:40;;;;;;;3.05;2.02;;;;;;;9.51;59.76;98734.60;1815691;77;21002;-58
2022/10/21 09:56:57;;;;;;;6.25;2.80;;;;;;;9.59;58.10;98738.59;1816595;77;21101;-62
2022/10/21 09:59:27;;;;;;;;;;;;;;;9.57;58.45;98743.41;1820856;77;21070;-58
2022/10/21 10:02:07;;;;;;;3.12;2.00;;;;;;;9.63;59.33;98740.48;1836646;77;20104;-59
2022/10/21 10:04:39;;;;;;;3.95;1.98;;;;;;;9.76;58.71;98747.19;1829473;77;20959;-59
2022/10/21 10:07:26;;;;;;;2.55;1.80;;;;;;;9.82;58.18;98755.47;1819790;77;21057;-59
2022/10/21 10:09:53;;;;;;;4.70;2.00;;;;;;;9.82;58.10;98743.99;1816594;77;21120;-62
2022/10/21 10:12:23;;;;;;;6.37;2.27;;;;;;;9.83;58.20;98728.19;1818681;77;21550;-59
2022/10/21 10:14:50;;;;;;;3.55;1.90;;;;;;;9.89;58.32;98733.83;1810650;77;20895;-60
2022/10/21 10:17:37;;;;;;;3.22;1.77;;;;;;;9.92;57.45;98722.56;1825178;77;21073;-57
2022/10/21 10:20:14;;;;;;;3.27;1.75;;;;;;;9.92;57.58;98723.91;1817781;77;21201;-60
2022/10/21 10:22:46;;;;;;;2.12;1.60;;;;;;;9.98;57.73;98720.17;1819555;77;20963;-66
2022/10/21 10:25:20;;;;;;;2.37;1.80;;;;;;;10.02;57.19;98715.88;1817586;77;20995;-63
2022/10/21 10:28:07;;;;;;;3.83;2.30;;;;;;;10.04;57.34;98711.86;1816270;77;21043;-61
2022/10/21 10:30:41;;;;;;;3.75;2.00;;;;;;;10.14;57.73;98705.73;1812445;78;20954;-62
2022/10/21 10:33:15;;;;;;;4.35;1.95;;;;;;;10.27;57.34;98697.13;1804746;77;21119;-60
2022/10/21 10:36:02;;;;;;;4.35;2.10;;;;;;;10.36;55.75;98688.02;1833952;77;21259;-61
2022/10/21 10:38:35;;;;;;;2.67;1.92;;;;;;;10.34;54.15;98682.92;1822287;77;21014;-59
2022/10/21 10:41:07;;;;;;;4.47;1.95;;;;;;;10.35;53.90;98674.36;1835076;77;21484;-64
2022/10/21 10:43:48;;;;;;;6.65;1.87;;;;;;;10.36;54.71;98667.94;1821314;77;21034;-58
2022/10/21 10:46:32;;;;;;;5.62;1.90;;;;;;;10.43;54.40;98657.74;1817151;77;20995;-59
2022/10/21 10:49:22;;;;;;;4.62;2.00;;;;;;;10.57;53.72;98647.52;1814374;77;21090;-57
2022/10/21 10:52:08;;;;;;;3.75;2.22;;;;;;;10.68;53.05;98641.03;1812173;77;20954;-59
2022/10/21 10:54:36;;;;;;;4.83;2.20;;;;;;;10.76;52.29;98631.06;1820050;77;20964;-59
2022/10/21 10:57:18;;;;;;;7.50;3.20;;;;;;;10.80;52.02;98610.70;1796532;79;21079;-58
2022/10/21 11:00:06;;;;;;;8.00;2.65;;;;;;;10.84;51.71;98603.70;1811870;78;20881;-59
2022/10/21 11:02:41;;;;;;;5.67;2.52;;;;;;;10.89;51.58;98610.91;1812217;78;21232;-56
2022/10/21 11:05:32;;;;;;;6.12;3.58;;;;;;;10.91;51.49;98617.59;1812966;78;20913;-60
2022/10/21 11:08:15;;;;;;;22.87;13.08;;;;;;;10.98;51.46;98612.73;1797371;78;20994;-60
2022/10/21 11:10:47;;;;;;;9.23;5.55;;;;;;;11.08;50.67;98600.34;1806232;78;21153;-60
2022/10/21 11:13:22;;;;;;;13.90;8.33;;;;;;;11.19;50.56;98599.20;1825237;77;20880;-60
2022/10/21 11:16:14;;;;;;;7.78;4.30;;;;;;;11.29;50.23;98604.47;1799407;78;21233;-59
2022/10/21 11:19:09;;;;;;;7.70;3.05;;;;;;;11.39;49.26;98607.09;1803738;79;20950;-59
2022/10/21 11:22:11;;;;;;;3.77;2.62;;;;;;;11.43;49.27;98614.83;1801550;79;20959;-60
2022/10/21 11:24:49;;;;;;;3.33;1.80;;;;;;;11.45;48.46;98600.59;1805760;78;21027;-58
2022/10/21 11:27:48;;;;;;;4.28;1.87;;;;;;;11.46;49.08;98599.52;1809007;78;20963;-58
2022/10/21 11:30:32;;;;;;;3.52;1.95;;;;;;;11.56;49.02;98599.45;1805789;79;22045;-58
2022/10/21 11:33:20;;;;;;;6.20;2.50;;;;;;;11.63;48.83;98597.23;1788220;78;21445;-59
2022/10/21 11:36:16;;;;;;;7.28;1.87;;;;;;;11.69;49.04;98598.81;1805068;78;21065;-59
2022/10/21 11:39:06;;;;;;;;;;;;;;;11.81;48.88;98599.23;1803770;78;21574;-58
2022/10/21 11:41:40;;;;;;;5.92;2.55;;;;;;;11.93;47.62;98598.84;1815647;79;20368;-59
2022/10/21 11:44:24;;;;;;;6.40;2.50;;;;;;;12.00;47.68;98600.13;1837420;77;21728;-59
2022/10/21 11:47:20;;;;;;;5.20;2.98;;;;;;;12.06;47.63;98596.85;1806856;77;20907;-59
2022/10/21 11:50:42;;;;;;;3.17;2.02;;;;;;;12.09;47.46;98583.64;1836402;77;21654;-58
2022/10/21 11:53:37;;;;;;;3.77;2.83;;;;;;;12.16;47.61;98578.73;1844683;77;20963;-60
2022/10/21 11:56:28;;;;;;;3.12;2.37;;;;;;;12.33;46.61;98581.75;1841767;77;20991;-58
2022/10/21 11:59:38;;;;;;;6.55;2.58;;;;;;;12.25;46.57;98581.03;1835681;77;21881;-61
2022/10/21 12:02:23;;;;;;;4.17;2.40;;;;;;;12.29;47.06;98579.36;1843042;77;21659;-58
2022/10/21 12:05:16;;;;;;;3.80;2.40;;;;;;;12.38;46.51;98584.92;1840861;77;21517;-58
2022/10/21 12:08:00;;;;;;;4.55;2.42;;;;;;;12.31;46.02;98579.09;1843786;77;21283;-59
2022/10/21 12:10:32;;;;;;;3.70;2.25;;;;;;;12.14;46.53;98575.53;1836651;77;21484;-58
2022/10/21 12:13:21;;;;;;;5.97;2.65;;;;;;;12.08;46.53;98567.26;1823804;77;21287;-58
2022/10/21 12:16:00;;;;;;;3.45;2.80;;;;;;;12.13;46.66;98569.89;1842746;77;20967;-59